• Join FlightAware (Why Join?)
  • Login
  • US Flag 
01:40PM EDT


 

Airport Tracker/Info


-or-


 

Live Flight TrackerFlight Track Log ✈ SWA1046 ✈ 08-May-2013 ✈ KMDW - KRSW

Flight Track Log - Related Links

Times and Time Zones

All times are in EDT time to prevent confusion due to time zone crossing. See the SWA1046 flight status page for this flight to view local times or setup timezone preferences in your user account.

Time Position Orientation Groundspeed Altitude Reporting Facility
EDT Latitude Longitude Course Direction KTS MPH feet Rate Location/Type
08:50PM 41.8000 -87.7167 174° South 162 186 2,200  Level Chicago TRACON
08:51PM 41.7189 -87.7053 174° South 251 289 6,100 2,460 Climbing Chicago Center
08:52PM 41.6481 -87.7444 202° Southwest 269 310 9,100 2,700 Climbing Chicago Center
08:53PM 41.5728 -87.7869 203° Southwest 288 331 11,800 2,580 Climbing Chicago Center
08:54PM 41.4831 -87.8386 203° Southwest 344 396 14,500 2,940 Climbing Chicago Center
08:55PM 41.3861 -87.8792 197° South 363 418 17,900 3,000 Climbing Chicago Center
08:56PM 41.2786 -87.8903 184° South 385 443 20,800 2,880 Climbing Chicago Center
08:57PM 41.1450 -87.8897 180° South 397 457 23,900 2,520 Climbing Chicago Center
08:58PM 41.0292 -87.8864 179° South 410 472 26,100 1,980 Climbing Chicago Center
09:00PM 40.9097 -87.8806 178° South 425 489 28,100 1,740 Climbing Chicago Center
09:01PM 40.7878 -87.8761 178° South 435 501 29,700 1,620 Climbing Chicago Center
09:02PM 40.6614 -87.8733 179° South 450 518 31,500 2,160 Climbing Chicago Center
09:03PM 40.5094 -87.8689 179° South 456 525 34,200 2,040 Climbing Chicago Center
09:04PM 40.3878 -87.8644 178° South 444 511 35,800 1,380 Climbing Chicago Center
09:04PM 40.3147 -87.8647 180° South 446 513 36,600 660 Climbing Indianapolis Center
09:05PM 40.1917 -87.8592 178° South 446 513 37,000 180 Climbing Indianapolis Center
09:06PM 40.0633 -87.8531 178° South 458 527 37,000  Level Indianapolis Center
09:07PM 39.9097 -87.8436 177° South 461 531 37,000  Level Indianapolis Center
09:08PM 39.7831 -87.7947 163° South 474 545 37,000  Level Indianapolis Center
09:09PM 39.6578 -87.7433 162° South 476 548 37,000  Level Indianapolis Center
09:10PM 39.5325 -87.6908 162° South 477 549 37,000  Level Indianapolis Center
09:11PM 39.4075 -87.6383 162° South 475 547 37,000  Level Indianapolis Center
09:13PM 39.2819 -87.5864 162° South 476 548 37,000  Level Indianapolis Center
09:14PM 39.1569 -87.5350 162° South 475 547 37,000  Level Indianapolis Center
09:15PM 39.0128 -87.4756 162° South 476 548 37,000  Level Indianapolis Center
09:16PM 38.8856 -87.4236 162° South 477 549 37,000  Level Indianapolis Center
09:17PM 38.7592 -87.3717 162° South 476 548 37,000  Level Indianapolis Center
09:18PM 38.6319 -87.3208 163° South 477 549 37,000  Level Indianapolis Center
09:19PM 38.5053 -87.2692 162° South 477 549 37,000  Level Indianapolis Center
09:20PM 38.3794 -87.2192 163° South 479 551 37,000  Level Indianapolis Center
09:21PM 38.2239 -87.1558 162° South 480 552 37,000  Level Indianapolis Center
09:22PM 38.1058 -87.1092 163° South 479 551 37,000  Level Indianapolis Center
09:23PM 37.9778 -87.0583 163° South 480 552 37,000  Level Indianapolis Center
09:24PM 37.8489 -87.0058 162° South 485 558 37,000  Level Indianapolis Center
09:25PM 37.7203 -86.9553 163° South 484 557 37,000  Level Indianapolis Center
09:26PM 37.5942 -86.9050 162° South 501 577 37,000  Level Memphis Center
09:27PM 37.4414 -86.8483 164° South 484 557 37,000  Level Indianapolis Center
09:28PM 37.3350 -86.8042 162° South 490 564 37,000  Level Memphis Center
09:29PM 37.2172 -86.7600 163° South 483 556 37,000  Level Memphis Center
09:30PM 37.0908 -86.7111 163° South 483 556 37,000  Level Memphis Center
09:31PM 36.9622 -86.6597 162° South 483 556 37,000  Level Memphis Center
09:32PM 36.8356 -86.6086 162° South 483 556 37,000  Level Memphis Center
09:33PM 36.7050 -86.5603 163° South 483 556 37,000  Level Memphis Center
09:34PM 36.5656 -86.5050 162° South 483 556 37,000  Level Memphis Center
09:35PM 36.4347 -86.4544 163° South 488 562 37,000  Level Memphis Center
09:36PM 36.3061 -86.4064 163° South 488 562 37,000  Level Memphis Center
09:37PM 36.1775 -86.3586 163° South 488 562 37,000  Level Memphis Center
09:38PM 36.0486 -86.3111 163° South 483 556 37,000  Level Memphis Center
09:39PM 35.9306 -86.2681 164° South 483 556 37,000  Level Memphis Center
09:41PM 35.6208 -86.1517 163° South 491 565 37,000  Level Atlanta Center
09:42PM 35.4922 -86.1050 164° South 486 559 37,000  Level Atlanta Center
09:43PM 35.3514 -86.0531 163° South 486 559 37,000  Level Atlanta Center
09:44PM 35.2206 -86.0014 162° South 486 559 37,000  Level Atlanta Center
09:45PM 35.1067 -85.9606 164° South 486 559 37,000  Level Atlanta Center
09:46PM 34.9758 -85.9144 164° South 486 559 37,000  Level Atlanta Center
09:47PM 34.8389 -85.8583 161° South 478 550 37,000  Level Atlanta Center
09:48PM 34.7206 -85.8203 165° South 478 550 37,000  Level Atlanta Center
09:49PM 34.5939 -85.7722 163° South 478 550 37,000  Level Atlanta Center
09:50PM 34.4653 -85.7269 164° South 478 550 37,000  Level Atlanta Center
09:51PM 34.3383 -85.6842 164° South 472 543 37,000  Level Atlanta Center
09:52PM 34.2119 -85.6339 162° South 478 550 37,000  Level Atlanta Center
09:53PM 34.0683 -85.5861 165° South 478 550 37,000  Level Atlanta Center
09:54PM 33.9397 -85.5386 163° South 478 550 37,000  Level Atlanta Center
09:55PM 33.8108 -85.4939 164° South 478 550 37,000  Level Atlanta Center
09:56PM 33.6819 -85.4492 164° South 472 543 37,000  Level Atlanta Center
09:57PM 33.5531 -85.4022 163° South 472 543 37,000  Level Atlanta Center
09:58PM 33.4239 -85.3581 164° South 472 543 37,000  Level Atlanta Center
09:59PM 33.2950 -85.3139 164° South 485 558 37,000  Level Atlanta Center
10:00PM 33.1642 -85.2647 163° South 485 558 37,000  Level Atlanta Center
10:01PM 33.0392 -85.2158 162° South 485 558 37,000  Level Atlanta Center
10:02PM 32.9083 -85.1719 164° South 480 552 37,000  Level Atlanta Center
10:03PM 32.7772 -85.1233 163° South 480 552 37,000  Level Atlanta Center
10:04PM 32.6503 -85.0800 164° South 487 560 37,000  Level Atlanta Center
10:05PM 32.5211 -85.0364 164° South 478 550 37,000  Level Atlanta Center
10:06PM 32.3942 -84.9908 163° South 483 556 37,000  Level Atlanta Center
10:07PM 32.2631 -84.9478 164° South 483 556 37,000  Level Atlanta Center
10:09PM 32.0717 -84.8808 163° South 476 548 37,000  Level Jacksonville Center
10:10PM 31.9450 -84.8389 164° South 476 548 37,000  Level Jacksonville Center
10:11PM 31.8161 -84.7972 165° South 470 541 37,000  Level Jacksonville Center
10:12PM 31.6914 -84.7556 164° South 470 541 37,000  Level Jacksonville Center
10:13PM 31.5689 -84.7142 164° South 470 541 37,000  Level Jacksonville Center
10:14PM 31.4422 -84.6703 164° South 475 547 37,000  Level Jacksonville Center
10:15PM 31.3153 -84.6289 164° South 475 547 37,000  Level Jacksonville Center
10:16PM 31.1886 -84.5878 164° South 475 547 37,000  Level Jacksonville Center
10:17PM 31.0639 -84.5442 163° South 475 547 37,000  Level Jacksonville Center
10:18PM 30.9369 -84.5008 164° South 475 547 37,000  Level Jacksonville Center
10:19PM 30.8122 -84.4600 164° South 475 547 37,000  Level Jacksonville Center
10:20PM 30.6875 -84.4169 163° South 475 547 37,000  Level Jacksonville Center
10:21PM 30.5628 -84.3739 163° South 470 541 37,000  Level Jacksonville Center
10:22PM 30.4592 -84.3119 153° Southeast 470 541 37,000  Level Jacksonville Center
10:23PM 30.3469 -84.2406 151° Southeast 465 535 37,000  Level Jacksonville Center
10:24PM 30.2247 -84.1619 151° Southeast 459 528 37,000  Level Jacksonville Center
10:25PM 30.1128 -84.0883 150° Southeast 459 528 37,000  Level Jacksonville Center
10:26PM 29.9986 -84.0197 153° Southeast 453 521 37,000  Level Jacksonville Center
10:27PM 29.8842 -83.9539 153° Southeast 453 521 37,000  Level Jacksonville Center
10:28PM 29.7678 -83.8856 153° Southeast 453 521 37,000  Level Jacksonville Center
10:29PM 29.6514 -83.8175 153° Southeast 458 527 37,000  Level Jacksonville Center
10:30PM 29.5350 -83.7519 154° Southeast 463 533 37,000  Level Jacksonville Center
10:31PM 29.4186 -83.6864 154° Southeast 463 533 37,000  Level Jacksonville Center
10:32PM 29.3019 -83.6164 152° Southeast 463 533 37,000  Level Jacksonville Center
10:33PM 29.1856 -83.5514 154° Southeast 463 533 37,000  Level Jacksonville Center
10:34PM 29.0689 -83.4842 153° Southeast 463 533 37,000  Level Jacksonville Center
10:35PM 28.9606 -83.4217 153° Southeast 463 533 37,000  Level Jacksonville Center
10:36PM 28.8439 -83.3572 154° Southeast 463 533 37,000  Level Jacksonville Center
10:37PM 28.7275 -83.2881 152° Southeast 463 533 37,000  Level Jacksonville Center
10:38PM 28.6106 -83.2236 154° Southeast 463 533 37,000 -240 Level Jacksonville Center
10:40PM 28.3456 -83.1183 161° South 464 534 36,300 -1,320 Descending Miami Center
10:41PM 28.2183 -83.0711 162° South 464 534 32,900 -3,720 Descending Miami Center
10:42PM 28.0972 -83.0292 163° South 459 528 28,900 -3,000 Descending Miami Center
10:43PM 27.9783 -82.9758 158° South 459 528 27,000 -960 Descending Miami Center
10:44PM 27.8658 -82.9250 158° South 454 522 27,000  Level Miami Center
10:45PM 27.7594 -82.8772 158° South 449 517 27,000  Level Miami Center
10:46PM 27.6408 -82.8217 157° South 428 493 27,000  Level Miami Center
10:47PM 27.5300 -82.7714 158° South 428 493 27,000 -900 Level Miami Center
10:48PM 27.4153 -82.7211 159° South 437 503 25,200 -2,100 Descending Miami Center
10:49PM 27.3147 -82.6786 159° South 437 503 22,900 -2,400 Descending Miami Center
10:50PM 27.2172 -82.6178 151° Southeast 423 487 20,500 -2,220 Descending Miami Center
10:51PM 27.1342 -82.5506 144° Southeast 417 480 18,500 -2,280 Descending Miami Center
10:52PM 27.0328 -82.4733 146° Southeast 410 472 16,000 -2,400 Descending Miami Center
10:53PM 26.9481 -82.4042 144° Southeast 398 458 13,700 -2,220 Descending Miami Center
10:54PM 26.8647 -82.3397 145° Southeast 381 438 11,500 -1,680 Descending Miami Center
10:55PM 26.7878 -82.2781 144° Southeast 366 421 10,500 -780 Descending Miami Center
10:56PM 26.7108 -82.2186 145° Southeast 348 400 10,000 -300 Descending Miami Center
10:57PM 26.6458 -82.1692 146° Southeast 317 365 10,000 -360 Level Miami Center
10:58PM 26.5767 -82.1128 144° Southeast 304 350 9,400 -1,020 Descending Miami Center
10:59PM 26.5119 -82.0611 144° Southeast 299 344 8,000 -1,380 Descending Miami Center
11:00PM 26.4469 -82.0094 145° Southeast 294 338 6,700 -1,380 Descending Miami Center
11:01PM 26.3992 -81.9403 128° Southeast 283 326 5,300 -1,380 Descending Miami Center
11:03PM 26.5333 -81.7500 50° Northeast  Level FlightAware Approximate
11:10PM 26.5362 -81.7552 50° Northeast  Level Estimated
11:11PM 26.5333 -81.7500 50° Northeast  Level FlightAware Approximate
11:12PM 26.5362 -81.7552 50° Northeast  Level Estimated
11:13PM 26.5333 -81.7500 50° Northeast  Level FlightAware Approximate
11:14PM 26.5362 -81.7552 50° Northeast  Level Estimated
11:15PM 26.5333 -81.7500 50° Northeast  Level FlightAware Approximate
11:16PM 26.5362 -81.7552 50° Northeast  Level Estimated
11:17PM 26.5333 -81.7500 50° Northeast  Level FlightAware Approximate